Time;durP1;ratioP1;P1;durP2;ratioP2;P2;SDS_P1;SDS_P2;PMS_P1;PMS_P2;Temp;Humidity;BMP_temperature;BMP_pressure;BME280_temperature;BME280_humidity;BME280_pressure;Samples;Min_cycle;Max_cycle;Signal;HPM_P1;HPM_P2
2022/04/24 00:01:04;;;;;;;6.70;5.17;;;;;;;-145.18;100.00;47334.34;5009512;28;20378;-69
2022/04/24 00:03:29;;;;;;;6.60;5.30;;;;;;;-145.18;100.00;47365.63;5009846;28;20113;-69
2022/04/24 00:05:54;;;;;;;6.83;4.77;;;;;;;-145.18;100.00;47363.66;5009061;28;20054;-69
2022/04/24 00:08:20;;;;;;;9.20;5.50;;;;;;;-145.18;100.00;47342.16;5009740;28;20037;-69
2022/04/24 00:10:45;;;;;;;8.73;5.03;;;;;;;-145.18;100.00;47359.75;5009660;28;20041;-69
2022/04/24 00:13:11;;;;;;;6.67;5.23;;;;;;;-145.18;100.00;47361.72;5009555;28;20063;-69
2022/04/24 00:15:39;;;;;;;7.70;4.87;;;;;;;-145.18;100.00;47355.84;5009906;28;20030;-69
2022/04/24 00:18:05;;;;;;;7.47;5.17;;;;;;;-145.18;100.00;47355.84;5003292;28;20276;-69
2022/04/24 00:20:31;;;;;;;7.07;5.40;;;;;;;-145.18;100.00;47365.63;4989879;28;20272;-69
2022/04/24 00:22:56;;;;;;;6.80;5.60;;;;;;;-145.18;100.00;47363.66;4989598;28;20287;-69
2022/04/24 00:25:21;;;;;;;9.23;5.30;;;;;;;-145.18;100.00;47365.63;4990085;28;20034;-69
2022/04/24 00:27:47;;;;;;;8.23;4.70;;;;;;;-145.18;100.00;47348.03;4989777;28;20093;-69
2022/04/24 00:30:12;;;;;;;7.73;5.30;;;;;;;-145.18;100.00;47367.56;4990029;28;20088;-69
2022/04/24 00:32:38;;;;;;;6.43;5.70;;;;;;;-145.18;100.00;47379.28;4989560;28;20038;-69
2022/04/24 00:35:04;;;;;;;9.07;5.73;;;;;;;-145.18;100.00;47391.00;4990075;28;20038;-69
2022/04/24 00:37:29;;;;;;;7.20;5.43;;;;;;;-145.18;100.00;47346.06;4982035;28;20137;-69
2022/04/24 00:39:55;;;;;;;10.37;6.13;;;;;;;-145.18;100.00;47371.47;5009484;28;20204;-69
2022/04/24 00:42:21;;;;;;;7.63;5.57;;;;;;;-145.18;100.00;47359.75;4991613;28;20050;-68
2022/04/24 00:44:46;;;;;;;9.43;5.67;;;;;;;-145.18;100.00;47369.53;5009082;28;20113;-69
2022/04/24 00:47:16;;;;;;;7.07;5.03;;;;;;;-145.18;100.00;47379.28;5009292;28;20072;-69
2022/04/24 00:49:43;;;;;;;7.83;5.67;;;;;;;-145.18;100.00;47367.56;5009305;28;20066;-69
2022/04/24 00:52:10;;;;;;;8.27;5.80;;;;;;;-145.18;100.00;47369.53;5009172;28;20417;-69
2022/04/24 00:54:35;;;;;;;6.20;4.93;;;;;;;-145.18;100.00;47371.47;4991694;28;20636;-69
2022/04/24 00:57:01;;;;;;;7.10;5.47;;;;;;;-145.18;100.00;47357.78;5008651;28;20286;-69
2022/04/24 00:59:26;;;;;;;7.93;6.03;;;;;;;-145.18;100.00;47365.63;5009196;28;20026;-69
2022/04/24 01:01:52;;;;;;;7.10;5.67;;;;;;;-145.18;100.00;47371.47;5008705;28;20034;-69
2022/04/24 01:04:18;;;;;;;10.57;6.17;;;;;;;-145.18;100.00;47377.34;5009107;28;20041;-69
2022/04/24 01:06:44;;;;;;;8.53;6.20;;;;;;;-145.18;100.00;47373.44;5008755;28;20042;-68
2022/04/24 01:09:18;;;;;;;6.83;5.67;;;;;;;-145.18;100.00;47375.38;5009453;28;20296;-69
2022/04/24 01:11:48;;;;;;;7.13;6.23;;;;;;;-145.18;100.00;47379.28;5008806;28;20065;-69
2022/04/24 01:14:16;;;;;;;8.23;5.73;;;;;;;-145.18;100.00;47394.91;5009615;28;20299;-68
2022/04/24 01:16:42;;;;;;;9.43;6.17;;;;;;;-145.18;100.00;47389.06;5008683;28;20798;-69
2022/04/24 01:19:08;;;;;;;7.20;6.27;;;;;;;-145.18;100.00;47394.91;5009459;28;20306;-69
2022/04/24 01:21:34;;;;;;;11.50;6.77;;;;;;;-145.18;100.00;47385.16;5009354;28;20263;-68
2022/04/24 01:23:59;;;;;;;8.40;6.20;;;;;;;-145.18;100.00;47394.91;5009234;28;20077;-69
2022/04/24 01:26:25;;;;;;;11.23;6.80;;;;;;;-145.18;100.00;47387.09;5008849;28;20173;-69
2022/04/24 01:28:50;;;;;;;14.00;7.33;;;;;;;-145.18;100.00;47379.28;5009045;28;20030;-68
2022/04/24 01:31:16;;;;;;;7.63;6.63;;;;;;;-145.18;100.00;47396.88;4994284;28;20065;-68
2022/04/24 01:33:42;;;;;;;10.53;7.07;;;;;;;-145.18;100.00;47391.00;5012349;28;20030;-68
2022/04/24 01:36:07;;;;;;;8.70;6.90;;;;;;;-145.18;100.00;47375.38;5012801;28;20069;-69
2022/04/24 01:38:33;;;;;;;10.37;7.17;;;;;;;-145.18;100.00;47410.56;5012110;28;20117;-69
2022/04/24 01:40:58;;;;;;;10.83;7.27;;;;;;;-145.18;100.00;47385.16;5012577;28;20056;-69
2022/04/24 01:43:24;;;;;;;8.23;6.93;;;;;;;-145.18;100.00;47387.09;5012504;28;20038;-68
2022/04/24 01:45:49;;;;;;;8.50;6.67;;;;;;;-145.18;100.00;47410.56;5012358;28;20111;-69
2022/04/24 01:48:14;;;;;;;8.20;6.73;;;;;;;-145.18;100.00;47400.78;5011785;28;20029;-69
2022/04/24 01:50:40;;;;;;;12.33;7.40;;;;;;;-145.18;100.00;47398.81;5012256;28;20037;-68
2022/04/24 01:53:05;;;;;;;10.20;7.37;;;;;;;-145.18;100.00;47402.72;4994036;28;20087;-69
2022/04/24 01:55:31;;;;;;;8.70;7.50;;;;;;;-145.18;100.00;47392.97;5012525;28;20025;-68
2022/04/24 01:57:56;;;;;;;11.50;8.07;;;;;;;-145.18;100.00;47412.50;5011433;28;20149;-68
2022/04/24 02:02:59;;;;;;;9.17;7.60;;;;;;;-145.18;100.00;47392.97;5182279;23;20057;-69
2022/04/24 02:05:24;;;;;;;12.00;7.97;;;;;;;-145.18;100.00;47391.00;5001865;28;20291;-69
2022/04/24 02:07:50;;;;;;;11.13;7.37;;;;;;;-145.18;100.00;47400.78;5011848;28;20026;-69
2022/04/24 02:10:15;;;;;;;10.00;8.20;;;;;;;-145.18;100.00;47424.22;5009009;28;20042;-69
2022/04/24 02:12:41;;;;;;;12.93;8.03;;;;;;;-145.18;100.00;47416.41;4991614;28;20121;-69
2022/04/24 02:15:08;;;;;;;11.73;8.43;;;;;;;-145.18;100.00;47406.63;4992364;28;20034;-70
2022/04/24 02:17:34;;;;;;;14.73;9.03;;;;;;;-145.18;100.00;47430.09;4992272;28;20647;-70
2022/04/24 02:20:00;;;;;;;12.17;8.67;;;;;;;-145.18;100.00;47406.63;4992193;28;20345;-69
2022/04/24 02:22:31;;;;;;;11.27;8.97;;;;;;;-145.18;100.00;47426.19;4991731;28;20395;-70
2022/04/24 02:24:57;;;;;;;10.90;8.83;;;;;;;-145.18;100.00;47432.03;4991962;28;20264;-70
2022/04/24 02:27:22;;;;;;;10.80;8.50;;;;;;;-145.18;100.00;47432.03;4991892;28;20303;-70
2022/04/24 02:29:47;;;;;;;11.60;8.77;;;;;;;-145.18;100.00;47451.56;4991568;28;20046;-70
2022/04/24 02:32:13;;;;;;;12.07;8.73;;;;;;;-145.18;100.00;47461.34;4991640;28;20112;-70
2022/04/24 02:34:38;;;;;;;12.37;9.80;;;;;;;-145.18;100.00;47465.25;4991825;28;20118;-70
2022/04/24 02:37:04;;;;;;;14.27;10.23;;;;;;;-145.18;100.00;47490.66;4991741;28;20049;-70
2022/04/24 02:39:29;;;;;;;12.00;9.13;;;;;;;-145.18;100.00;47473.06;4992007;28;20490;-70
2022/04/24 02:41:54;;;;;;;14.00;9.63;;;;;;;-145.18;100.00;47488.69;4990223;28;20042;-70
2022/04/24 02:44:20;;;;;;;12.93;9.63;;;;;;;-145.18;100.00;47467.22;4991873;28;20601;-70
2022/04/24 02:46:45;;;;;;;15.43;9.20;;;;;;;-145.18;100.00;47463.31;4991473;28;20038;-70
2022/04/24 02:49:10;;;;;;;16.83;9.60;;;;;;;-145.18;100.00;47484.78;4991855;28;20053;-70
2022/04/24 02:51:36;;;;;;;14.10;10.03;;;;;;;-145.18;100.00;47469.16;4991211;28;20038;-70
2022/04/24 02:54:01;;;;;;;12.17;10.10;;;;;;;-145.18;100.00;47484.78;4991541;28;20475;-69
2022/04/24 02:56:26;;;;;;;13.37;9.87;;;;;;;-145.18;100.00;47488.69;4991883;28;20034;-70
2022/04/24 02:58:52;;;;;;;13.47;9.30;;;;;;;-145.18;100.00;47490.66;4991250;28;20066;-71
2022/04/24 03:01:18;;;;;;;17.20;10.40;;;;;;;-145.18;100.00;47512.16;4991428;28;20455;-70
2022/04/24 03:03:45;;;;;;;15.27;10.27;;;;;;;-145.18;100.00;47502.38;4990835;28;20063;-70
2022/04/24 03:06:10;;;;;;;17.67;10.10;;;;;;;-145.18;100.00;47490.66;4991304;28;20632;-70
2022/04/24 03:08:36;;;;;;;17.57;10.97;;;;;;;-145.18;100.00;47484.78;4973766;28;20279;-70
2022/04/24 03:11:01;;;;;;;14.53;10.60;;;;;;;-145.18;100.00;47439.84;4990960;28;20042;-70
2022/04/24 03:13:27;;;;;;;15.33;11.43;;;;;;;-145.18;100.00;47424.22;4991270;28;20042;-70
2022/04/24 03:15:52;;;;;;;17.20;10.87;;;;;;;-145.18;100.00;47387.09;4991222;28;20117;-70
2022/04/24 03:18:18;;;;;;;14.60;10.93;;;;;;;-145.18;100.00;47346.06;4973494;28;20376;-70
2022/04/24 03:20:44;;;;;;;14.73;10.93;;;;;;;-145.18;100.00;47279.66;4990789;28;20116;-69
2022/04/24 03:23:10;;;;;;;15.47;11.13;;;;;;;-145.18;100.00;47152.66;4990839;28;20034;-69
2022/04/24 03:25:35;;;;;;;15.97;10.23;;;;;;;-145.18;100.00;47064.75;4991278;28;20283;-69
2022/04/24 03:28:00;;;;;;;12.97;10.23;;;;;;;-145.18;100.00;47015.91;4990463;28;20109;-69
2022/04/24 03:30:26;;;;;;;14.07;10.40;;;;;;;-145.18;100.00;47000.28;4991447;28;20399;-70
2022/04/24 03:32:51;;;;;;;14.97;10.40;;;;;;;-145.18;100.00;46978.81;4990479;28;20038;-70
2022/04/24 03:35:16;;;;;;;13.40;10.07;;;;;;;-145.18;100.00;46896.75;4973803;28;20073;-70
2022/04/24 03:37:43;;;;;;;14.67;10.67;;;;;;;-145.18;100.00;46859.63;4990613;28;20034;-70
2022/04/24 03:40:09;;;;;;;17.10;11.47;;;;;;;-145.18;100.00;46875.28;4991215;28;20225;-70
2022/04/24 03:42:35;;;;;;;16.13;11.73;;;;;;;-145.18;100.00;46814.72;4990451;28;20827;-70
2022/04/24 03:45:02;;;;;;;16.27;10.67;;;;;;;-145.18;100.00;46783.47;4990865;28;20076;-70
2022/04/24 03:47:27;;;;;;;18.77;11.47;;;;;;;-145.18;100.00;46777.59;4990632;28;20771;-70
2022/04/24 03:49:53;;;;;;;20.07;11.63;;;;;;;-145.18;100.00;46754.16;4990661;28;20276;-70
2022/04/24 03:52:19;;;;;;;19.73;10.17;;;;;;;-145.18;100.00;46740.47;4990213;28;20164;-70
2022/04/24 03:54:44;;;;;;;17.23;11.73;;;;;;;-145.18;100.00;46746.34;4990753;28;20375;-72
2022/04/24 03:57:10;;;;;;;17.40;11.30;;;;;;;-145.18;100.00;46744.38;4990168;28;20034;-70
2022/04/24 03:59:35;;;;;;;19.73;10.10;;;;;;;-145.18;100.00;46742.44;4990817;28;20038;-70
2022/04/24 04:02:02;;;;;;;14.87;11.17;;;;;;;-145.18;100.00;46730.72;4989902;28;20045;-70
2022/04/24 04:04:28;;;;;;;17.23;10.93;;;;;;;-145.18;100.00;46732.66;4990450;28;20062;-69
2022/04/24 04:06:54;;;;;;;17.03;10.90;;;;;;;-145.18;100.00;46703.38;4990007;28;20276;-70
2022/04/24 04:09:19;;;;;;;16.10;11.00;;;;;;;-145.18;100.00;46691.66;4990504;28;20406;-70
2022/04/24 04:11:45;;;;;;;16.20;10.60;;;;;;;-145.18;100.00;46693.59;4990408;28;20041;-70
2022/04/24 04:14:10;;;;;;;15.07;10.83;;;;;;;-145.18;100.00;46668.22;4989965;28;20487;-70
2022/04/24 04:16:35;;;;;;;15.20;11.07;;;;;;;-145.18;100.00;46687.75;4990554;28;20038;-70
2022/04/24 04:19:01;;;;;;;14.57;11.20;;;;;;;-145.18;100.00;46664.31;4972206;28;20038;-70
2022/04/24 04:21:26;;;;;;;15.40;10.90;;;;;;;-145.18;100.00;46683.84;4990552;28;20569;-70
2022/04/24 04:23:52;;;;;;;14.93;10.83;;;;;;;-145.18;100.00;46685.78;4989512;28;20185;-69
2022/04/24 04:26:17;;;;;;;17.90;11.43;;;;;;;-145.18;100.00;46679.94;4990410;28;20057;-70
2022/04/24 04:28:46;;;;;;;13.83;10.47;;;;;;;-145.18;100.00;46670.16;4989454;28;20030;-70
2022/04/24 04:31:15;;;;;;;16.77;10.27;;;;;;;-145.18;100.00;46664.31;4990478;28;20030;-69
2022/04/24 04:33:41;;;;;;;17.00;9.73;;;;;;;-145.18;100.00;46670.16;4989804;28;20338;-69
2022/04/24 04:36:06;;;;;;;16.80;10.63;;;;;;;-145.18;100.00;46664.31;4990692;28;20318;-69
2022/04/24 04:38:32;;;;;;;14.90;10.23;;;;;;;-145.18;100.00;46670.16;4989828;28;20042;-70
2022/04/24 04:40:57;;;;;;;13.10;9.90;;;;;;;-145.18;100.00;46679.94;4990291;28;20026;-69
2022/04/24 04:43:26;;;;;;;16.30;10.93;;;;;;;-145.18;100.00;46679.94;4989733;28;20049;-70
2022/04/24 04:45:51;;;;;;;14.53;10.47;;;;;;;-145.18;100.00;46672.13;4990209;28;20026;-69
2022/04/24 04:48:17;;;;;;;14.43;9.77;;;;;;;-145.18;100.00;46681.88;4972590;28;20276;-69
2022/04/24 04:50:42;;;;;;;13.97;9.90;;;;;;;-145.18;100.00;46679.94;4989860;28;20202;-69
2022/04/24 04:53:07;;;;;;;13.33;10.10;;;;;;;-145.18;100.00;46689.69;4990399;28;20594;-70
2022/04/24 04:55:33;;;;;;;15.47;9.73;;;;;;;-145.18;100.00;46693.59;4990245;28;20511;-69
2022/04/24 04:57:58;;;;;;;15.93;9.47;;;;;;;-145.18;100.00;46681.88;4989767;28;20031;-69
2022/04/24 05:00:24;;;;;;;12.93;9.73;;;;;;;-145.18;100.00;46683.84;5002467;28;20030;-70
2022/04/24 05:02:50;;;;;;;14.80;9.53;;;;;;;-145.18;100.00;46699.47;5007665;28;20054;-70
2022/04/24 05:05:15;;;;;;;15.50;9.60;;;;;;;-145.18;100.00;46691.66;5009858;28;20782;-70
2022/04/24 05:07:41;;;;;;;14.40;9.23;;;;;;;-145.18;100.00;46711.19;5012090;28;20030;-70
2022/04/24 05:10:07;;;;;;;13.80;9.50;;;;;;;-145.18;100.00;46722.91;4999191;28;20394;-70
2022/04/24 05:12:32;;;;;;;13.77;9.07;;;;;;;-145.18;100.00;46713.13;4975004;28;20046;-70
2022/04/24 05:15:06;;;;;;;15.50;8.97;;;;;;;-145.18;100.00;46719.00;4975238;28;20291;-70
2022/04/24 05:17:34;;;;;;;12.73;9.20;;;;;;;-145.18;100.00;46732.66;4993313;28;20045;-70
2022/04/24 05:20:00;;;;;;;15.00;9.53;;;;;;;-145.18;100.00;46722.91;4993170;28;20308;-70
2022/04/24 05:22:26;;;;;;;14.77;9.20;;;;;;;-145.18;100.00;46736.56;4993159;28;20298;-69
2022/04/24 05:24:51;;;;;;;12.07;8.53;;;;;;;-145.18;100.00;46705.31;4993260;28;20272;-69
2022/04/24 05:27:17;;;;;;;12.80;9.43;;;;;;;-145.18;100.00;46730.72;4993346;28;20522;-69
2022/04/24 05:29:42;;;;;;;10.60;8.53;;;;;;;-145.18;100.00;46732.66;4993347;28;20057;-70
2022/04/24 05:32:08;;;;;;;12.33;8.47;;;;;;;-145.18;100.00;46748.28;4992924;28;20069;-70
2022/04/24 05:34:33;;;;;;;12.00;9.10;;;;;;;-145.18;100.00;46752.19;5006793;28;20525;-70
2022/04/24 05:36:59;;;;;;;13.47;8.40;;;;;;;-145.18;100.00;46742.44;5012280;28;20041;-70
2022/04/24 05:39:24;;;;;;;13.10;8.77;;;;;;;-145.18;100.00;46744.38;4993610;28;20030;-70
2022/04/24 05:41:50;;;;;;;15.03;8.80;;;;;;;-145.18;100.00;46761.97;4992931;28;20459;-70
2022/04/24 05:44:15;;;;;;;14.33;8.20;;;;;;;-145.18;100.00;46783.47;4992453;28;20045;-70
2022/04/24 05:46:40;;;;;;;11.37;7.97;;;;;;;-145.18;100.00;46771.75;4992973;28;20045;-70
2022/04/24 05:49:06;;;;;;;11.30;8.30;;;;;;;-145.18;100.00;46842.06;4993001;28;20034;-70
2022/04/24 05:51:33;;;;;;;10.67;7.87;;;;;;;-145.18;100.00;46804.94;4993328;28;20391;-70
2022/04/24 05:53:59;;;;;;;11.07;7.90;;;;;;;-145.18;100.00;46867.44;4992183;28;20046;-70
2022/04/24 05:56:24;;;;;;;10.43;7.80;;;;;;;-145.18;100.00;46877.22;4992706;28;20264;-70
2022/04/24 05:58:50;;;;;;;11.30;8.13;;;;;;;-145.18;100.00;46931.91;4992293;28;20038;-70
2022/04/24 06:01:15;;;;;;;10.47;7.23;;;;;;;-145.18;100.00;46922.16;4992455;28;20622;-70
2022/04/24 06:03:41;;;;;;;12.93;7.73;;;;;;;-145.18;100.00;47105.78;4992299;28;20062;-70
2022/04/24 06:06:07;;;;;;;12.73;7.80;;;;;;;-145.18;100.00;47213.22;4993159;28;20030;-70
2022/04/24 06:08:33;;;;;;;12.00;7.77;;;;;;;-145.18;100.00;47123.38;4992353;28;20046;-70
2022/04/24 06:10:58;;;;;;;13.67;8.17;;;;;;;-145.18;100.00;47260.13;4997672;28;20291;-70
2022/04/24 06:13:23;;;;;;;13.50;7.93;;;;;;;-145.18;100.00;47289.41;5011817;28;20034;-70
2022/04/24 06:15:49;;;;;;;11.17;8.03;;;;;;;-145.18;100.00;47355.84;5011105;28;20133;-71
2022/04/24 06:18:15;;;;;;;10.40;7.70;;;;;;;-145.18;100.00;47336.31;4993279;28;20041;-70
2022/04/24 06:20:40;;;;;;;10.53;7.50;;;;;;;-145.18;100.00;47305.06;5003069;28;20040;-70
2022/04/24 06:23:06;;;;;;;13.73;7.60;;;;;;;-145.18;100.00;47387.09;5012542;28;20643;-70
2022/04/24 06:25:33;;;;;;;10.97;7.33;;;;;;;-145.18;100.00;47396.88;5031584;28;20112;-70
2022/04/24 06:28:00;;;;;;;10.87;7.30;;;;;;;-145.18;100.00;47457.44;5030756;28;20026;-71
2022/04/24 06:30:28;;;;;;;9.80;7.37;;;;;;;-145.18;100.00;47457.44;5011738;28;20278;-70
2022/04/24 06:32:54;;;;;;;11.00;7.50;;;;;;;-145.18;100.00;47455.47;4999995;28;20276;-71
2022/04/24 06:35:20;;;;;;;10.77;7.43;;;;;;;-145.18;100.00;47449.63;4991835;28;20768;-71
2022/04/24 06:37:48;;;;;;;10.83;7.30;;;;;;;-145.18;100.00;47435.94;4991728;28;20363;-71
2022/04/24 06:40:14;;;;;;;10.07;7.00;;;;;;;-145.18;100.00;47434.00;5002125;28;20045;-71
2022/04/24 06:42:54;;;;;;;10.23;7.30;;;;;;;-145.18;100.00;47422.28;5011362;28;20287;-71
2022/04/24 06:45:33;;;;;;;14.90;7.60;;;;;;;-145.18;100.00;47441.81;4994049;28;20752;-70
2022/04/24 06:48:04;;;;;;;12.30;7.13;;;;;;;-145.18;100.00;47439.84;5010812;28;20391;-70
2022/04/24 06:50:31;;;;;;;11.00;7.63;;;;;;;-145.18;100.00;47394.91;5011594;28;20280;-71
2022/04/24 06:53:08;;;;;;;12.07;7.63;;;;;;;-145.18;100.00;47387.09;5010714;28;20278;-70
2022/04/24 06:55:37;;;;;;;12.53;6.63;;;;;;;-145.18;100.00;47385.16;4992304;28;20759;-71
2022/04/24 06:58:03;;;;;;;10.73;6.63;;;;;;;-145.18;100.00;47375.38;4990799;28;20802;-71
2022/04/24 07:00:30;;;;;;;8.77;7.13;;;;;;;-145.18;100.00;47373.44;4991652;28;20299;-70
2022/04/24 07:02:56;;;;;;;12.23;8.27;;;;;;;-145.18;100.00;47369.53;4990564;28;20362;-71
2022/04/24 07:05:23;;;;;;;9.10;7.03;;;;;;;-145.18;100.00;47349.97;4998677;28;20267;-71
2022/04/24 07:07:48;;;;;;;11.50;7.60;;;;;;;-145.18;100.00;47348.03;5005311;28;20062;-71
2022/04/24 07:10:14;;;;;;;9.93;7.17;;;;;;;-145.18;100.00;47355.84;4991170;28;20358;-71
2022/04/24 07:12:50;;;;;;;9.73;6.90;;;;;;;-145.18;100.00;47324.59;4973717;28;20070;-71
2022/04/24 07:15:17;;;;;;;11.20;7.40;;;;;;;-145.18;100.00;47326.53;4991483;28;20030;-71
2022/04/24 07:17:44;;;;;;;9.97;6.70;;;;;;;-145.18;100.00;47324.59;4990590;28;20287;-71
2022/04/24 07:20:10;;;;;;;11.90;7.07;;;;;;;-145.18;100.00;47301.16;4973628;28;20347;-71
2022/04/24 07:22:53;;;;;;;12.50;7.10;;;;;;;-145.18;100.00;47314.81;4990190;28;20306;-71
2022/04/24 07:25:24;;;;;;;9.57;6.93;;;;;;;-145.18;100.00;47303.09;5006464;28;20280;-71
2022/04/24 07:27:50;;;;;;;12.63;6.97;;;;;;;-145.18;100.00;47310.91;4992685;28;20366;-71
2022/04/24 07:30:17;;;;;;;10.57;7.63;;;;;;;-145.18;100.00;47305.06;4993372;28;20345;-71
2022/04/24 07:32:45;;;;;;;10.00;6.60;;;;;;;-145.18;100.00;47281.59;5008365;28;20034;-71
2022/04/24 07:35:12;;;;;;;11.43;6.53;;;;;;;-145.18;100.00;47275.75;5009389;28;20849;-71
2022/04/24 07:37:38;;;;;;;9.50;6.73;;;;;;;-145.18;100.00;47281.59;5008238;28;20366;-71
2022/04/24 07:40:08;;;;;;;8.33;6.70;;;;;;;-145.18;100.00;47287.47;5002465;28;20697;-71
2022/04/24 07:42:51;;;;;;;11.63;6.87;;;;;;;-145.18;100.00;47279.66;4989705;28;20034;-71
2022/04/24 07:45:24;;;;;;;7.50;6.50;;;;;;;-145.18;100.00;47285.50;4990606;28;20264;-71
2022/04/24 07:47:51;;;;;;;9.67;7.07;;;;;;;-145.18;100.00;47275.75;4990006;28;20280;-71
2022/04/24 07:50:20;;;;;;;7.30;6.60;;;;;;;-145.18;100.00;47281.59;4990082;28;20866;-71
2022/04/24 07:52:47;;;;;;;9.67;7.30;;;;;;;-145.18;100.00;47267.94;4989264;28;20802;-71
2022/04/24 07:55:13;;;;;;;9.77;6.83;;;;;;;-145.18;100.00;47267.94;4990128;28;20141;-71
2022/04/24 07:57:40;;;;;;;10.47;6.60;;;;;;;-145.18;100.00;47264.03;4989920;28;20267;-71
2022/04/24 08:00:09;;;;;;;10.20;7.30;;;;;;;-145.18;100.00;47258.16;4989554;28;20275;-71
2022/04/24 08:02:46;;;;;;;9.93;7.30;;;;;;;-145.18;100.00;47240.56;4989141;28;20311;-71
2022/04/24 08:05:17;;;;;;;12.53;6.90;;;;;;;-145.18;100.00;47246.44;4996274;28;20058;-71
2022/04/24 08:07:43;;;;;;;10.07;6.63;;;;;;;-145.18;100.00;47250.34;5009633;28;20120;-71
2022/04/24 08:10:08;;;;;;;8.30;7.10;;;;;;;-145.18;100.00;47246.44;4992653;28;20109;-71
2022/04/24 08:12:33;;;;;;;8.90;6.47;;;;;;;-145.18;100.00;47232.75;5010154;28;20088;-71
2022/04/24 08:14:59;;;;;;;11.37;6.70;;;;;;;-145.18;100.00;47236.66;5009478;28;20038;-71
2022/04/24 08:17:24;;;;;;;7.53;6.13;;;;;;;-145.18;100.00;47234.72;5010144;28;20035;-72
2022/04/24 08:19:50;;;;;;;12.67;7.97;;;;;;;-145.18;100.00;47236.66;5009385;28;20033;-72
2022/04/24 08:22:15;;;;;;;12.50;7.23;;;;;;;-145.18;100.00;47230.81;5009272;28;20092;-72
2022/04/24 08:24:40;;;;;;;8.67;7.03;;;;;;;-145.18;100.00;47215.19;5009237;28;20061;-72
2022/04/24 08:27:06;;;;;;;10.00;6.87;;;;;;;-145.18;100.00;47228.84;5009281;28;20112;-72
2022/04/24 08:29:32;;;;;;;12.67;7.07;;;;;;;-145.18;100.00;47211.28;5009516;28;20061;-71
2022/04/24 08:31:57;;;;;;;8.63;7.10;;;;;;;-145.18;100.00;47211.28;5009536;28;20041;-71
2022/04/24 08:34:23;;;;;;;7.30;6.33;;;;;;;-145.18;100.00;47189.78;5009266;28;20722;-72
2022/04/24 08:36:48;;;;;;;9.77;6.43;;;;;;;-145.18;100.00;47207.38;5009755;28;20070;-72
2022/04/24 08:39:14;;;;;;;11.07;7.33;;;;;;;-145.18;100.00;47207.38;5008999;28;20042;-71
2022/04/24 08:41:41;;;;;;;8.93;7.30;;;;;;;-145.18;100.00;47199.56;5013384;28;20030;-71
2022/04/24 08:44:07;;;;;;;8.53;7.00;;;;;;;-145.18;100.00;47176.09;5013492;28;20096;-72
2022/04/24 08:46:33;;;;;;;15.77;7.20;;;;;;;-145.18;100.00;47199.56;5013807;28;20061;-72
2022/04/24 08:49:00;;;;;;;10.43;7.90;;;;;;;-145.18;100.00;47189.78;4995161;28;20041;-72
2022/04/24 08:51:26;;;;;;;10.40;6.90;;;;;;;-145.18;100.00;47178.06;5013875;28;20406;-72
2022/04/24 08:53:53;;;;;;;9.90;7.63;;;;;;;-145.18;100.00;47172.19;5012958;28;20498;-72
2022/04/24 08:56:18;;;;;;;10.40;7.93;;;;;;;-145.18;100.00;47185.88;5013728;28;20072;-72
2022/04/24 08:58:44;;;;;;;11.23;7.17;;;;;;;-145.18;100.00;47172.19;5012798;28;20077;-72
2022/04/24 09:01:09;;;;;;;9.13;7.80;;;;;;;-145.18;100.00;47172.19;5013452;28;20049;-72
2022/04/24 09:03:35;;;;;;;8.53;7.23;;;;;;;-145.18;100.00;47156.56;5012767;28;20058;-72
2022/04/24 09:06:01;;;;;;;10.53;7.30;;;;;;;-145.18;100.00;47164.38;5000883;28;20376;-73
2022/04/24 09:08:26;;;;;;;9.57;6.90;;;;;;;-145.18;100.00;47150.72;4993572;28;20053;-72
2022/04/24 09:10:54;;;;;;;12.10;7.47;;;;;;;-145.18;100.00;47160.47;4993055;28;20061;-72
2022/04/24 09:13:31;;;;;;;12.30;7.13;;;;;;;-145.18;100.00;47158.53;4993273;28;20027;-72
2022/04/24 09:15:57;;;;;;;11.73;7.53;;;;;;;-145.18;100.00;47158.53;4993348;28;20391;-72
2022/04/24 09:18:23;;;;;;;10.23;7.43;;;;;;;-145.18;100.00;47146.81;4993258;28;20030;-72
2022/04/24 09:20:55;;;;;;;10.37;7.27;;;;;;;-145.18;100.00;47154.63;4993328;28;20069;-72
2022/04/24 09:23:20;;;;;;;11.27;7.40;;;;;;;-145.18;100.00;47139.00;4993185;28;20088;-72
2022/04/24 09:25:46;;;;;;;11.73;7.30;;;;;;;-145.18;100.00;47144.84;4993367;28;20435;-72
2022/04/24 09:28:11;;;;;;;11.57;7.23;;;;;;;-145.18;100.00;47152.66;4993265;28;20035;-72
2022/04/24 09:30:48;;;;;;;9.97;7.07;;;;;;;-145.18;100.00;47133.13;4993596;28;20034;-72
2022/04/24 09:33:14;;;;;;;8.87;7.00;;;;;;;-145.18;100.00;47137.03;4993067;28;20100;-72
2022/04/24 09:35:41;;;;;;;8.97;6.97;;;;;;;-145.18;100.00;47123.38;4993661;28;20475;-72
2022/04/24 09:38:09;;;;;;;14.47;7.40;;;;;;;-145.18;100.00;47133.13;4992930;28;20069;-72
2022/04/24 09:40:42;;;;;;;9.37;7.20;;;;;;;-145.18;100.00;47131.19;4993137;28;20030;-72
2022/04/24 09:43:13;;;;;;;10.90;6.83;;;;;;;-145.18;100.00;47123.38;4993203;28;20077;-72
2022/04/24 09:45:48;;;;;;;9.47;7.63;;;;;;;-145.18;100.00;47117.50;4993084;28;20675;-72
2022/04/24 09:48:15;;;;;;;7.95;6.55;;;;;;;-145.18;100.00;47107.72;4992979;28;20049;-72
2022/04/24 09:50:41;;;;;;;12.17;7.20;;;;;;;-145.18;100.00;47121.41;4992641;28;20039;-72
2022/04/24 09:53:10;;;;;;;9.90;6.90;;;;;;;-145.18;100.00;47109.69;4992527;28;20031;-72
2022/04/24 09:55:38;;;;;;;9.43;6.57;;;;;;;-145.18;100.00;47105.78;4992962;28;20056;-72
2022/04/24 09:58:04;;;;;;;8.93;7.10;;;;;;;-145.18;100.00;47096.00;4992500;28;20058;-72
2022/04/24 10:00:32;;;;;;;8.33;6.67;;;;;;;-145.18;100.00;47109.69;4992848;28;20065;-72
2022/04/24 10:02:57;;;;;;;10.87;7.27;;;;;;;-145.18;100.00;47097.97;4991638;28;20047;-72
2022/04/24 10:05:28;;;;;;;9.47;6.10;;;;;;;-145.18;100.00;47096.00;4982264;28;20029;-72
2022/04/24 10:07:53;;;;;;;8.60;6.50;;;;;;;-145.18;100.00;47086.25;5012085;28;20104;-72
2022/04/24 10:10:19;;;;;;;9.37;6.77;;;;;;;-145.18;100.00;47084.28;5011767;28;20034;-72
2022/04/24 10:12:48;;;;;;;11.23;6.73;;;;;;;-145.18;100.00;47082.34;5012104;28;20026;-73
2022/04/24 10:15:16;;;;;;;8.47;7.00;;;;;;;-145.18;100.00;47086.25;5011508;28;20600;-72
2022/04/24 10:17:56;;;;;;;8.27;6.40;;;;;;;-145.18;100.00;47082.34;5010192;28;20026;-72
2022/04/24 10:20:55;;;;;;;7.00;5.77;;;;;;;-145.18;100.00;47082.34;5031465;28;20172;-72
2022/04/24 10:23:37;;;;;;;6.83;5.80;;;;;;;-145.18;100.00;47086.25;5014655;28;20053;-72
2022/04/24 10:26:04;;;;;;;9.47;6.70;;;;;;;-145.18;100.00;47096.00;4992845;28;20534;-72
2022/04/24 10:28:40;;;;;;;7.63;6.17;;;;;;;-145.18;100.00;47080.38;4976471;28;20030;-72
2022/04/24 10:31:08;;;;;;;8.17;5.67;;;;;;;-145.18;100.00;47084.28;4992361;28;20038;-72
2022/04/24 10:33:36;;;;;;;8.63;6.40;;;;;;;-145.18;100.00;47078.44;4991481;28;20043;-72
2022/04/24 10:36:13;;;;;;;10.47;6.40;;;;;;;-145.18;100.00;47082.34;4991810;28;20530;-72
2022/04/24 10:38:57;;;;;;;7.20;6.17;;;;;;;-145.18;100.00;47072.56;4991569;28;20105;-72
2022/04/24 10:41:24;;;;;;;6.40;5.70;;;;;;;-145.18;100.00;47080.38;4991137;28;20066;-70
2022/04/24 10:43:56;;;;;;;7.87;5.63;;;;;;;-145.18;100.00;47064.75;4990960;28;20120;-72
2022/04/24 10:46:34;;;;;;;10.63;6.03;;;;;;;-145.18;100.00;47060.84;4992035;28;20031;-72
2022/04/24 10:49:11;;;;;;;9.00;6.20;;;;;;;-145.18;100.00;47074.53;4991094;28;20668;-72
2022/04/24 10:51:40;;;;;;;7.07;5.73;;;;;;;-145.18;100.00;47062.81;4991352;28;20037;-72
2022/04/24 10:54:08;;;;;;;10.10;6.77;;;;;;;-145.18;100.00;47072.56;4990076;28;20054;-72
2022/04/24 10:56:36;;;;;;;8.33;5.70;;;;;;;-145.18;100.00;47072.56;4996771;28;20125;-72
2022/04/24 10:59:19;;;;;;;8.47;5.13;;;;;;;-145.18;100.00;47060.84;5007175;28;20792;-73
2022/04/24 11:01:48;;;;;;;7.30;5.77;;;;;;;-145.18;100.00;47062.81;5011082;28;20103;-72
2022/04/24 11:04:15;;;;;;;9.43;5.90;;;;;;;-145.18;100.00;47064.75;5010140;28;20042;-72